sensor_id;sensor_type;location;lat;lon;timestamp;temperature;humidity
66257;DHT22;53049;43.446;3.698;2023-08-12T00:01:39;22.20;99.90
66257;DHT22;53049;43.446;3.698;2023-08-12T00:04:05;22.20;99.90
66257;DHT22;53049;43.446;3.698;2023-08-12T00:06:30;22.20;99.90
66257;DHT22;53049;43.446;3.698;2023-08-12T00:08:56;22.20;99.90
66257;DHT22;53049;43.446;3.698;2023-08-12T00:11:22;22.20;99.90
66257;DHT22;53049;43.446;3.698;2023-08-12T00:13:47;22.30;99.90
66257;DHT22;53049;43.446;3.698;2023-08-12T00:16:13;22.20;99.90
66257;DHT22;53049;43.446;3.698;2023-08-12T00:18:38;22.20;99.90
66257;DHT22;53049;43.446;3.698;2023-08-12T00:21:07;22.10;99.90
66257;DHT22;53049;43.446;3.698;2023-08-12T00:23:40;22.10;99.90
66257;DHT22;53049;43.446;3.698;2023-08-12T00:26:06;22.10;99.90
66257;DHT22;53049;43.446;3.698;2023-08-12T00:28:32;22.00;99.90
66257;DHT22;53049;43.446;3.698;2023-08-12T00:30:58;21.90;99.90
66257;DHT22;53049;43.446;3.698;2023-08-12T00:33:24;21.90;99.90
66257;DHT22;53049;43.446;3.698;2023-08-12T00:35:49;21.90;99.90
66257;DHT22;53049;43.446;3.698;2023-08-12T00:38:15;21.80;99.90
66257;DHT22;53049;43.446;3.698;2023-08-12T00:40:41;21.70;99.90
66257;DHT22;53049;43.446;3.698;2023-08-12T00:43:07;21.70;99.90
66257;DHT22;53049;43.446;3.698;2023-08-12T00:45:34;21.70;99.90
66257;DHT22;53049;43.446;3.698;2023-08-12T00:48:01;21.70;99.90
66257;DHT22;53049;43.446;3.698;2023-08-12T00:50:28;21.70;99.90
66257;DHT22;53049;43.446;3.698;2023-08-12T00:52:53;21.70;99.90
66257;DHT22;53049;43.446;3.698;2023-08-12T00:55:19;21.70;99.90
66257;DHT22;53049;43.446;3.698;2023-08-12T00:57:46;21.70;99.90
66257;DHT22;53049;43.446;3.698;2023-08-12T01:00:12;21.70;99.90
66257;DHT22;53049;43.446;3.698;2023-08-12T01:02:38;21.70;99.90
66257;DHT22;53049;43.446;3.698;2023-08-12T01:05:04;21.60;99.90
66257;DHT22;53049;43.446;3.698;2023-08-12T01:07:30;21.50;99.90
66257;DHT22;53049;43.446;3.698;2023-08-12T01:09:56;21.50;99.90
66257;DHT22;53049;43.446;3.698;2023-08-12T01:12:29;21.40;99.90
66257;DHT22;53049;43.446;3.698;2023-08-12T01:15:04;21.40;99.90
66257;DHT22;53049;43.446;3.698;2023-08-12T01:17:34;21.30;99.90
66257;DHT22;53049;43.446;3.698;2023-08-12T01:20:02;21.30;99.90
66257;DHT22;53049;43.446;3.698;2023-08-12T01:22:34;21.20;99.90
66257;DHT22;53049;43.446;3.698;2023-08-12T01:25:05;21.20;99.90
66257;DHT22;53049;43.446;3.698;2023-08-12T01:27:31;21.30;99.90
66257;DHT22;53049;43.446;3.698;2023-08-12T01:29:56;21.30;99.90
66257;DHT22;53049;43.446;3.698;2023-08-12T01:32:41;21.30;99.90
66257;DHT22;53049;43.446;3.698;2023-08-12T01:35:19;21.20;99.90
66257;DHT22;53049;43.446;3.698;2023-08-12T01:37:47;21.20;99.90
66257;DHT22;53049;43.446;3.698;2023-08-12T01:40:16;21.30;99.90
66257;DHT22;53049;43.446;3.698;2023-08-12T01:42:42;21.30;99.90
66257;DHT22;53049;43.446;3.698;2023-08-12T01:45:08;21.30;99.90
66257;DHT22;53049;43.446;3.698;2023-08-12T01:47:34;21.30;99.90
66257;DHT22;53049;43.446;3.698;2023-08-12T01:49:59;21.20;99.90
66257;DHT22;53049;43.446;3.698;2023-08-12T01:52:25;21.20;99.90
66257;DHT22;53049;43.446;3.698;2023-08-12T01:54:51;21.10;99.90
66257;DHT22;53049;43.446;3.698;2023-08-12T01:57:17;21.10;99.90
66257;DHT22;53049;43.446;3.698;2023-08-12T01:59:43;21.10;99.90
66257;DHT22;53049;43.446;3.698;2023-08-12T02:02:09;21.20;99.90
66257;DHT22;53049;43.446;3.698;2023-08-12T02:04:35;21.30;99.90
66257;DHT22;53049;43.446;3.698;2023-08-12T02:07:03;21.30;99.90
66257;DHT22;53049;43.446;3.698;2023-08-12T02:09:29;21.30;99.90
66257;DHT22;53049;43.446;3.698;2023-08-12T02:11:54;21.30;99.90
66257;DHT22;53049;43.446;3.698;2023-08-12T02:14:20;21.20;99.90
66257;DHT22;53049;43.446;3.698;2023-08-12T02:16:45;21.20;99.90
66257;DHT22;53049;43.446;3.698;2023-08-12T02:19:11;21.10;99.90
66257;DHT22;53049;43.446;3.698;2023-08-12T02:21:37;21.10;99.90
66257;DHT22;53049;43.446;3.698;2023-08-12T02:24:02;21.10;99.90
66257;DHT22;53049;43.446;3.698;2023-08-12T02:26:28;21.10;99.90
66257;DHT22;53049;43.446;3.698;2023-08-12T02:28:54;21.10;99.90
66257;DHT22;53049;43.446;3.698;2023-08-12T02:31:19;21.10;99.90
66257;DHT22;53049;43.446;3.698;2023-08-12T02:33:45;21.20;99.90
66257;DHT22;53049;43.446;3.698;2023-08-12T02:36:10;21.20;99.90
66257;DHT22;53049;43.446;3.698;2023-08-12T02:38:36;21.20;99.90
66257;DHT22;53049;43.446;3.698;2023-08-12T02:41:02;21.20;99.90
66257;DHT22;53049;43.446;3.698;2023-08-12T02:43:27;21.20;99.90
66257;DHT22;53049;43.446;3.698;2023-08-12T02:45:53;21.20;99.90
66257;DHT22;53049;43.446;3.698;2023-08-12T02:48:18;21.20;99.90
66257;DHT22;53049;43.446;3.698;2023-08-12T02:50:44;21.00;99.90
66257;DHT22;53049;43.446;3.698;2023-08-12T02:53:10;20.90;99.90
66257;DHT22;53049;43.446;3.698;2023-08-12T02:55:35;20.80;99.90
66257;DHT22;53049;43.446;3.698;2023-08-12T02:58:03;20.70;99.90
66257;DHT22;53049;43.446;3.698;2023-08-12T03:00:28;20.60;99.90
66257;DHT22;53049;43.446;3.698;2023-08-12T03:02:54;20.60;99.90
66257;DHT22;53049;43.446;3.698;2023-08-12T03:05:20;20.40;99.90
66257;DHT22;53049;43.446;3.698;2023-08-12T03:07:46;20.50;99.90
66257;DHT22;53049;43.446;3.698;2023-08-12T03:10:12;20.40;99.90
66257;DHT22;53049;43.446;3.698;2023-08-12T03:12:38;20.30;99.90
66257;DHT22;53049;43.446;3.698;2023-08-12T03:15:06;20.30;99.90
66257;DHT22;53049;43.446;3.698;2023-08-12T03:17:31;20.30;99.90
66257;DHT22;53049;43.446;3.698;2023-08-12T03:19:57;20.20;99.90
66257;DHT22;53049;43.446;3.698;2023-08-12T03:22:25;20.20;99.90
66257;DHT22;53049;43.446;3.698;2023-08-12T03:24:51;20.20;99.90
66257;DHT22;53049;43.446;3.698;2023-08-12T03:27:16;20.20;99.90
66257;DHT22;53049;43.446;3.698;2023-08-12T03:29:42;20.20;99.90
66257;DHT22;53049;43.446;3.698;2023-08-12T03:32:07;20.20;99.90
66257;DHT22;53049;43.446;3.698;2023-08-12T03:34:33;20.20;99.90
66257;DHT22;53049;43.446;3.698;2023-08-12T03:36:59;20.20;99.90
66257;DHT22;53049;43.446;3.698;2023-08-12T03:39:24;20.20;99.90
66257;DHT22;53049;43.446;3.698;2023-08-12T03:41:50;20.10;99.90
66257;DHT22;53049;43.446;3.698;2023-08-12T03:44:16;20.10;99.90
66257;DHT22;53049;43.446;3.698;2023-08-12T03:46:42;20.00;99.90
66257;DHT22;53049;43.446;3.698;2023-08-12T03:49:08;20.00;99.90
66257;DHT22;53049;43.446;3.698;2023-08-12T03:51:33;19.90;99.90
66257;DHT22;53049;43.446;3.698;2023-08-12T03:53:59;19.90;99.90
66257;DHT22;53049;43.446;3.698;2023-08-12T03:56:25;20.00;99.90
66257;DHT22;53049;43.446;3.698;2023-08-12T03:58:51;20.00;99.90
66257;DHT22;53049;43.446;3.698;2023-08-12T04:01:17;20.00;99.90
66257;DHT22;53049;43.446;3.698;2023-08-12T04:03:42;20.00;99.90
66257;DHT22;53049;43.446;3.698;2023-08-12T04:06:08;20.00;99.90
66257;DHT22;53049;43.446;3.698;2023-08-12T04:08:34;20.10;99.90
66257;DHT22;53049;43.446;3.698;2023-08-12T04:11:00;20.10;99.90
66257;DHT22;53049;43.446;3.698;2023-08-12T04:13:26;20.20;99.90
66257;DHT22;53049;43.446;3.698;2023-08-12T04:15:51;20.20;99.90
66257;DHT22;53049;43.446;3.698;2023-08-12T04:18:18;20.10;99.90
66257;DHT22;53049;43.446;3.698;2023-08-12T04:20:49;20.20;99.90
66257;DHT22;53049;43.446;3.698;2023-08-12T04:23:15;20.20;99.90
66257;DHT22;53049;43.446;3.698;2023-08-12T04:25:43;20.30;99.90
66257;DHT22;53049;43.446;3.698;2023-08-12T04:28:11;20.30;99.90
66257;DHT22;53049;43.446;3.698;2023-08-12T04:30:43;20.30;99.90
66257;DHT22;53049;43.446;3.698;2023-08-12T04:33:09;20.40;99.90
66257;DHT22;53049;43.446;3.698;2023-08-12T04:35:34;20.50;99.90
66257;DHT22;53049;43.446;3.698;2023-08-12T04:38:00;20.50;99.90
66257;DHT22;53049;43.446;3.698;2023-08-12T04:40:26;20.60;99.90
66257;DHT22;53049;43.446;3.698;2023-08-12T04:42:51;20.60;99.90
66257;DHT22;53049;43.446;3.698;2023-08-12T04:45:17;20.70;99.90
66257;DHT22;53049;43.446;3.698;2023-08-12T04:47:43;20.80;99.90
66257;DHT22;53049;43.446;3.698;2023-08-12T04:50:08;20.80;99.90
66257;DHT22;53049;43.446;3.698;2023-08-12T04:52:34;20.90;99.90
66257;DHT22;53049;43.446;3.698;2023-08-12T04:55:00;20.90;99.90
66257;DHT22;53049;43.446;3.698;2023-08-12T04:57:25;21.00;99.90
66257;DHT22;53049;43.446;3.698;2023-08-12T04:59:51;21.00;99.90
66257;DHT22;53049;43.446;3.698;2023-08-12T05:02:17;21.10;99.90
66257;DHT22;53049;43.446;3.698;2023-08-12T05:04:50;21.20;99.90
66257;DHT22;53049;43.446;3.698;2023-08-12T05:07:17;21.20;99.90
66257;DHT22;53049;43.446;3.698;2023-08-12T05:09:43;21.30;99.90
66257;DHT22;53049;43.446;3.698;2023-08-12T05:12:11;21.30;99.90
66257;DHT22;53049;43.446;3.698;2023-08-12T05:17:04;21.30;99.90
66257;DHT22;53049;43.446;3.698;2023-08-12T05:19:29;21.20;99.90
66257;DHT22;53049;43.446;3.698;2023-08-12T05:21:55;21.20;99.90
66257;DHT22;53049;43.446;3.698;2023-08-12T05:24:21;21.30;99.90
66257;DHT22;53049;43.446;3.698;2023-08-12T05:26:46;21.20;99.90
66257;DHT22;53049;43.446;3.698;2023-08-12T05:29:12;21.20;99.90
66257;DHT22;53049;43.446;3.698;2023-08-12T05:31:38;21.20;99.90
66257;DHT22;53049;43.446;3.698;2023-08-12T05:34:04;21.20;99.90
66257;DHT22;53049;43.446;3.698;2023-08-12T05:36:29;21.20;99.90
66257;DHT22;53049;43.446;3.698;2023-08-12T05:38:55;21.20;99.90
66257;DHT22;53049;43.446;3.698;2023-08-12T05:41:21;21.20;99.90
66257;DHT22;53049;43.446;3.698;2023-08-12T05:43:48;21.30;99.90
66257;DHT22;53049;43.446;3.698;2023-08-12T05:46:13;21.30;99.90
66257;DHT22;53049;43.446;3.698;2023-08-12T05:48:39;21.30;99.90
66257;DHT22;53049;43.446;3.698;2023-08-12T05:51:04;21.30;99.90
66257;DHT22;53049;43.446;3.698;2023-08-12T05:53:30;21.30;99.90
66257;DHT22;53049;43.446;3.698;2023-08-12T05:55:56;21.30;99.90
66257;DHT22;53049;43.446;3.698;2023-08-12T05:58:22;21.30;99.90
66257;DHT22;53049;43.446;3.698;2023-08-12T06:00:47;21.30;99.90
66257;DHT22;53049;43.446;3.698;2023-08-12T06:03:13;21.20;99.90
66257;DHT22;53049;43.446;3.698;2023-08-12T06:05:45;21.10;99.90
66257;DHT22;53049;43.446;3.698;2023-08-12T06:08:10;21.10;99.90
66257;DHT22;53049;43.446;3.698;2023-08-12T06:10:36;21.10;99.90
66257;DHT22;53049;43.446;3.698;2023-08-12T06:13:02;21.00;99.90
66257;DHT22;53049;43.446;3.698;2023-08-12T06:15:28;21.00;99.90
66257;DHT22;53049;43.446;3.698;2023-08-12T06:17:53;21.00;99.90
66257;DHT22;53049;43.446;3.698;2023-08-12T06:20:19;21.10;99.90
66257;DHT22;53049;43.446;3.698;2023-08-12T06:22:45;21.20;99.90
66257;DHT22;53049;43.446;3.698;2023-08-12T06:25:10;21.30;99.90
66257;DHT22;53049;43.446;3.698;2023-08-12T06:27:36;21.30;99.90
66257;DHT22;53049;43.446;3.698;2023-08-12T06:30:02;21.40;99.90
66257;DHT22;53049;43.446;3.698;2023-08-12T06:32:27;21.60;99.90
66257;DHT22;53049;43.446;3.698;2023-08-12T06:34:53;21.60;99.90
66257;DHT22;53049;43.446;3.698;2023-08-12T06:37:19;21.60;99.90
66257;DHT22;53049;43.446;3.698;2023-08-12T06:39:44;21.70;99.90
66257;DHT22;53049;43.446;3.698;2023-08-12T06:42:10;21.60;99.90
66257;DHT22;53049;43.446;3.698;2023-08-12T06:44:35;21.60;99.90
66257;DHT22;53049;43.446;3.698;2023-08-12T06:47:01;21.60;99.90
66257;DHT22;53049;43.446;3.698;2023-08-12T06:49:27;21.60;99.90
66257;DHT22;53049;43.446;3.698;2023-08-12T06:51:52;21.70;99.90
66257;DHT22;53049;43.446;3.698;2023-08-12T06:54:18;21.70;99.90
66257;DHT22;53049;43.446;3.698;2023-08-12T06:56:43;21.60;99.90
66257;DHT22;53049;43.446;3.698;2023-08-12T06:59:09;21.60;99.90
66257;DHT22;53049;43.446;3.698;2023-08-12T07:01:35;21.70;99.90
66257;DHT22;53049;43.446;3.698;2023-08-12T07:04:00;21.70;99.90
66257;DHT22;53049;43.446;3.698;2023-08-12T07:06:26;21.70;99.90
66257;DHT22;53049;43.446;3.698;2023-08-12T07:08:52;21.70;99.90
66257;DHT22;53049;43.446;3.698;2023-08-12T07:11:17;21.70;99.90
66257;DHT22;53049;43.446;3.698;2023-08-12T07:13:43;21.80;99.90
66257;DHT22;53049;43.446;3.698;2023-08-12T07:16:11;21.80;99.90
66257;DHT22;53049;43.446;3.698;2023-08-12T07:18:37;21.80;99.90
66257;DHT22;53049;43.446;3.698;2023-08-12T07:21:03;21.90;99.90
66257;DHT22;53049;43.446;3.698;2023-08-12T07:23:29;21.90;99.90
66257;DHT22;53049;43.446;3.698;2023-08-12T07:25:54;21.90;99.90
66257;DHT22;53049;43.446;3.698;2023-08-12T07:28:21;21.90;99.90
66257;DHT22;53049;43.446;3.698;2023-08-12T07:30:48;22.00;99.90
66257;DHT22;53049;43.446;3.698;2023-08-12T07:33:14;22.10;99.90
66257;DHT22;53049;43.446;3.698;2023-08-12T07:35:40;22.10;99.90
66257;DHT22;53049;43.446;3.698;2023-08-12T07:38:06;22.20;99.90
66257;DHT22;53049;43.446;3.698;2023-08-12T07:40:32;22.30;99.90
66257;DHT22;53049;43.446;3.698;2023-08-12T07:42:57;22.70;99.90
66257;DHT22;53049;43.446;3.698;2023-08-12T07:45:23;26.10;99.90
66257;DHT22;53049;43.446;3.698;2023-08-12T07:47:49;27.40;99.90
66257;DHT22;53049;43.446;3.698;2023-08-12T07:50:15;28.70;99.90
66257;DHT22;53049;43.446;3.698;2023-08-12T07:52:41;29.10;99.90
66257;DHT22;53049;43.446;3.698;2023-08-12T07:55:06;28.80;99.90
66257;DHT22;53049;43.446;3.698;2023-08-12T07:57:32;32.10;99.90
66257;DHT22;53049;43.446;3.698;2023-08-12T07:59:58;34.60;99.90
66257;DHT22;53049;43.446;3.698;2023-08-12T08:02:24;33.10;99.90
66257;DHT22;53049;43.446;3.698;2023-08-12T08:04:49;31.40;99.90
66257;DHT22;53049;43.446;3.698;2023-08-12T08:07:15;30.00;99.90
66257;DHT22;53049;43.446;3.698;2023-08-12T08:09:42;31.20;99.90
66257;DHT22;53049;43.446;3.698;2023-08-12T08:12:08;32.80;99.90
66257;DHT22;53049;43.446;3.698;2023-08-12T08:14:34;32.30;99.90
66257;DHT22;53049;43.446;3.698;2023-08-12T08:17:00;34.60;99.90
66257;DHT22;53049;43.446;3.698;2023-08-12T08:19:25;37.20;99.90
66257;DHT22;53049;43.446;3.698;2023-08-12T08:21:51;39.50;99.90
66257;DHT22;53049;43.446;3.698;2023-08-12T08:24:16;38.80;99.90
66257;DHT22;53049;43.446;3.698;2023-08-12T08:26:42;35.40;99.90
66257;DHT22;53049;43.446;3.698;2023-08-12T08:29:09;38.40;99.90
66257;DHT22;53049;43.446;3.698;2023-08-12T08:31:34;40.00;99.90
66257;DHT22;53049;43.446;3.698;2023-08-12T08:34:00;39.60;99.90
66257;DHT22;53049;43.446;3.698;2023-08-12T08:36:25;35.10;99.90
66257;DHT22;53049;43.446;3.698;2023-08-12T08:38:51;33.00;99.90
66257;DHT22;53049;43.446;3.698;2023-08-12T08:41:17;31.70;99.90
66257;DHT22;53049;43.446;3.698;2023-08-12T08:43:43;30.60;99.90
66257;DHT22;53049;43.446;3.698;2023-08-12T08:46:14;30.10;99.90
66257;DHT22;53049;43.446;3.698;2023-08-12T08:48:43;29.30;99.90
66257;DHT22;53049;43.446;3.698;2023-08-12T08:51:10;28.60;99.90
66257;DHT22;53049;43.446;3.698;2023-08-12T08:53:37;28.50;99.90
66257;DHT22;53049;43.446;3.698;2023-08-12T08:56:08;28.50;99.90
66257;DHT22;53049;43.446;3.698;2023-08-12T08:58:37;28.60;99.90
66257;DHT22;53049;43.446;3.698;2023-08-12T09:01:03;29.00;99.90
66257;DHT22;53049;43.446;3.698;2023-08-12T09:03:32;29.20;99.90
66257;DHT22;53049;43.446;3.698;2023-08-12T09:05:59;29.40;99.90
66257;DHT22;53049;43.446;3.698;2023-08-12T09:08:25;29.70;99.90
66257;DHT22;53049;43.446;3.698;2023-08-12T09:10:52;29.60;99.90
66257;DHT22;53049;43.446;3.698;2023-08-12T09:13:18;29.60;99.90
66257;DHT22;53049;43.446;3.698;2023-08-12T09:15:44;29.20;99.90
66257;DHT22;53049;43.446;3.698;2023-08-12T09:18:10;29.00;99.90
66257;DHT22;53049;43.446;3.698;2023-08-12T09:20:36;29.10;99.90
66257;DHT22;53049;43.446;3.698;2023-08-12T09:23:02;29.40;99.90
66257;DHT22;53049;43.446;3.698;2023-08-12T09:25:29;29.70;99.90
66257;DHT22;53049;43.446;3.698;2023-08-12T09:28:03;30.00;99.90
66257;DHT22;53049;43.446;3.698;2023-08-12T09:30:30;30.30;99.90
66257;DHT22;53049;43.446;3.698;2023-08-12T09:33:06;30.50;99.90
66257;DHT22;53049;43.446;3.698;2023-08-12T09:35:40;30.30;99.90
66257;DHT22;53049;43.446;3.698;2023-08-12T09:38:13;30.30;99.90
66257;DHT22;53049;43.446;3.698;2023-08-12T09:40:38;30.30;99.90
66257;DHT22;53049;43.446;3.698;2023-08-12T09:43:04;30.60;99.90
66257;DHT22;53049;43.446;3.698;2023-08-12T09:45:31;30.50;99.90
66257;DHT22;53049;43.446;3.698;2023-08-12T09:47:58;29.70;99.90
66257;DHT22;53049;43.446;3.698;2023-08-12T09:50:25;29.20;99.90
66257;DHT22;53049;43.446;3.698;2023-08-12T09:52:53;29.00;99.90
66257;DHT22;53049;43.446;3.698;2023-08-12T09:55:21;29.00;99.90
66257;DHT22;53049;43.446;3.698;2023-08-12T09:57:54;29.40;99.90
66257;DHT22;53049;43.446;3.698;2023-08-12T10:00:22;30.10;99.90
66257;DHT22;53049;43.446;3.698;2023-08-12T10:02:49;30.40;99.90
66257;DHT22;53049;43.446;3.698;2023-08-12T10:05:21;30.70;99.90
66257;DHT22;53049;43.446;3.698;2023-08-12T10:07:47;30.30;99.90
66257;DHT22;53049;43.446;3.698;2023-08-12T10:10:14;30.60;99.90
66257;DHT22;53049;43.446;3.698;2023-08-12T10:12:41;31.10;99.90
66257;DHT22;53049;43.446;3.698;2023-08-12T10:15:07;31.90;99.90
66257;DHT22;53049;43.446;3.698;2023-08-12T10:17:34;31.90;99.90
66257;DHT22;53049;43.446;3.698;2023-08-12T10:20:03;31.80;99.90
66257;DHT22;53049;43.446;3.698;2023-08-12T10:22:30;31.40;99.90
66257;DHT22;53049;43.446;3.698;2023-08-12T10:25:01;31.10;99.90
66257;DHT22;53049;43.446;3.698;2023-08-12T10:27:27;31.10;99.90
66257;DHT22;53049;43.446;3.698;2023-08-12T10:29:56;31.30;99.90
66257;DHT22;53049;43.446;3.698;2023-08-12T10:32:23;31.80;99.90
66257;DHT22;53049;43.446;3.698;2023-08-12T10:34:56;31.10;99.90
66257;DHT22;53049;43.446;3.698;2023-08-12T10:37:24;30.30;99.90
66257;DHT22;53049;43.446;3.698;2023-08-12T10:39:51;30.00;99.90
66257;DHT22;53049;43.446;3.698;2023-08-12T10:42:48;29.70;99.90
66257;DHT22;53049;43.446;3.698;2023-08-12T10:45:15;29.60;99.90
66257;DHT22;53049;43.446;3.698;2023-08-12T10:47:43;29.30;99.90
66257;DHT22;53049;43.446;3.698;2023-08-12T10:50:20;29.30;99.90
66257;DHT22;53049;43.446;3.698;2023-08-12T10:52:47;29.30;99.90
66257;DHT22;53049;43.446;3.698;2023-08-12T10:55:26;29.40;99.90
66257;DHT22;53049;43.446;3.698;2023-08-12T10:57:54;29.30;99.90
66257;DHT22;53049;43.446;3.698;2023-08-12T11:00:24;29.40;99.90
66257;DHT22;53049;43.446;3.698;2023-08-12T11:02:55;29.40;99.90
66257;DHT22;53049;43.446;3.698;2023-08-12T11:05:22;29.40;99.90
66257;DHT22;53049;43.446;3.698;2023-08-12T11:07:59;29.20;99.90
66257;DHT22;53049;43.446;3.698;2023-08-12T11:10:27;28.90;99.90
66257;DHT22;53049;43.446;3.698;2023-08-12T11:12:56;29.00;99.90
66257;DHT22;53049;43.446;3.698;2023-08-12T11:15:34;29.00;99.90
66257;DHT22;53049;43.446;3.698;2023-08-12T11:18:08;29.00;99.90
66257;DHT22;53049;43.446;3.698;2023-08-12T11:20:34;29.10;99.90
66257;DHT22;53049;43.446;3.698;2023-08-12T11:23:01;29.00;99.90
66257;DHT22;53049;43.446;3.698;2023-08-12T11:25:31;29.00;99.90
66257;DHT22;53049;43.446;3.698;2023-08-12T11:27:57;28.90;99.90
66257;DHT22;53049;43.446;3.698;2023-08-12T11:30:23;29.10;99.90
66257;DHT22;53049;43.446;3.698;2023-08-12T11:32:54;29.20;99.90
66257;DHT22;53049;43.446;3.698;2023-08-12T11:35:21;29.10;99.90
66257;DHT22;53049;43.446;3.698;2023-08-12T11:37:48;29.10;99.90
66257;DHT22;53049;43.446;3.698;2023-08-12T11:40:16;29.20;99.90
66257;DHT22;53049;43.446;3.698;2023-08-12T11:42:44;29.40;99.90
66257;DHT22;53049;43.446;3.698;2023-08-12T11:45:10;29.40;99.90
66257;DHT22;53049;43.446;3.698;2023-08-12T11:47:38;29.40;99.90
66257;DHT22;53049;43.446;3.698;2023-08-12T11:50:09;29.50;99.90
66257;DHT22;53049;43.446;3.698;2023-08-12T11:52:39;29.60;99.90
66257;DHT22;53049;43.446;3.698;2023-08-12T11:55:06;29.50;99.90
66257;DHT22;53049;43.446;3.698;2023-08-12T11:57:33;29.50;99.90
66257;DHT22;53049;43.446;3.698;2023-08-12T12:00:00;29.50;99.90
66257;DHT22;53049;43.446;3.698;2023-08-12T12:02:26;29.40;99.90
66257;DHT22;53049;43.446;3.698;2023-08-12T12:04:52;29.40;99.90
66257;DHT22;53049;43.446;3.698;2023-08-12T12:07:23;29.40;99.90
66257;DHT22;53049;43.446;3.698;2023-08-12T12:09:53;29.50;99.90
66257;DHT22;53049;43.446;3.698;2023-08-12T12:12:25;29.70;99.90
66257;DHT22;53049;43.446;3.698;2023-08-12T12:14:55;29.80;99.90
66257;DHT22;53049;43.446;3.698;2023-08-12T12:17:24;29.90;99.90
66257;DHT22;53049;43.446;3.698;2023-08-12T12:19:56;29.80;99.90
66257;DHT22;53049;43.446;3.698;2023-08-12T12:22:32;29.80;99.90
66257;DHT22;53049;43.446;3.698;2023-08-12T12:25:10;29.90;99.90
66257;DHT22;53049;43.446;3.698;2023-08-12T12:27:37;29.80;99.90
66257;DHT22;53049;43.446;3.698;2023-08-12T12:30:03;29.60;99.90
66257;DHT22;53049;43.446;3.698;2023-08-12T12:32:29;29.60;99.90
66257;DHT22;53049;43.446;3.698;2023-08-12T12:34:55;29.50;99.90
66257;DHT22;53049;43.446;3.698;2023-08-12T12:37:21;29.50;99.90
66257;DHT22;53049;43.446;3.698;2023-08-12T12:39:47;29.40;99.90
66257;DHT22;53049;43.446;3.698;2023-08-12T12:42:12;29.50;99.90
66257;DHT22;53049;43.446;3.698;2023-08-12T12:44:38;29.60;99.90
66257;DHT22;53049;43.446;3.698;2023-08-12T12:47:04;29.60;99.90
66257;DHT22;53049;43.446;3.698;2023-08-12T12:49:30;29.50;99.90
66257;DHT22;53049;43.446;3.698;2023-08-12T12:51:56;29.50;99.90
66257;DHT22;53049;43.446;3.698;2023-08-12T12:54:21;29.40;99.90
66257;DHT22;53049;43.446;3.698;2023-08-12T12:56:47;29.40;99.90
66257;DHT22;53049;43.446;3.698;2023-08-12T12:59:13;29.40;99.90
66257;DHT22;53049;43.446;3.698;2023-08-12T13:01:40;29.40;99.90
66257;DHT22;53049;43.446;3.698;2023-08-12T13:04:06;29.60;99.90
66257;DHT22;53049;43.446;3.698;2023-08-12T13:06:34;29.70;99.90
66257;DHT22;53049;43.446;3.698;2023-08-12T13:08:59;29.70;99.90
66257;DHT22;53049;43.446;3.698;2023-08-12T13:11:25;29.70;99.90
66257;DHT22;53049;43.446;3.698;2023-08-12T13:13:51;29.80;99.90
66257;DHT22;53049;43.446;3.698;2023-08-12T13:16:16;29.80;99.90
66257;DHT22;53049;43.446;3.698;2023-08-12T13:18:43;29.80;99.90
66257;DHT22;53049;43.446;3.698;2023-08-12T13:21:08;29.70;99.90
66257;DHT22;53049;43.446;3.698;2023-08-12T13:23:34;29.70;99.90
66257;DHT22;53049;43.446;3.698;2023-08-12T13:26:00;29.70;99.90
66257;DHT22;53049;43.446;3.698;2023-08-12T13:28:25;29.70;99.90
66257;DHT22;53049;43.446;3.698;2023-08-12T13:30:51;29.70;99.90
66257;DHT22;53049;43.446;3.698;2023-08-12T13:33:16;29.60;99.90
66257;DHT22;53049;43.446;3.698;2023-08-12T13:35:42;29.70;99.90
66257;DHT22;53049;43.446;3.698;2023-08-12T13:38:08;29.70;99.90
66257;DHT22;53049;43.446;3.698;2023-08-12T13:40:33;29.60;99.90
66257;DHT22;53049;43.446;3.698;2023-08-12T13:42:59;29.70;99.90
66257;DHT22;53049;43.446;3.698;2023-08-12T13:45:24;29.70;99.90
66257;DHT22;53049;43.446;3.698;2023-08-12T13:47:51;29.60;99.90
66257;DHT22;53049;43.446;3.698;2023-08-12T13:50:17;29.70;99.90
66257;DHT22;53049;43.446;3.698;2023-08-12T13:52:44;29.70;99.90
66257;DHT22;53049;43.446;3.698;2023-08-12T13:55:11;29.60;99.90
66257;DHT22;53049;43.446;3.698;2023-08-12T13:57:37;29.50;99.90
66257;DHT22;53049;43.446;3.698;2023-08-12T14:00:03;29.40;99.90
66257;DHT22;53049;43.446;3.698;2023-08-12T14:02:35;29.30;99.90
66257;DHT22;53049;43.446;3.698;2023-08-12T14:05:00;29.30;99.90
66257;DHT22;53049;43.446;3.698;2023-08-12T14:07:26;29.30;99.90
66257;DHT22;53049;43.446;3.698;2023-08-12T14:09:51;29.30;99.90
66257;DHT22;53049;43.446;3.698;2023-08-12T14:12:18;29.20;99.90
66257;DHT22;53049;43.446;3.698;2023-08-12T14:14:43;29.10;99.90
66257;DHT22;53049;43.446;3.698;2023-08-12T14:17:09;29.10;99.90
66257;DHT22;53049;43.446;3.698;2023-08-12T14:19:39;29.10;99.90
66257;DHT22;53049;43.446;3.698;2023-08-12T14:22:05;29.10;99.90
66257;DHT22;53049;43.446;3.698;2023-08-12T14:24:30;29.20;99.90
66257;DHT22;53049;43.446;3.698;2023-08-12T14:26:56;29.20;99.90
66257;DHT22;53049;43.446;3.698;2023-08-12T14:29:21;29.20;99.90
66257;DHT22;53049;43.446;3.698;2023-08-12T14:31:47;29.10;99.90
66257;DHT22;53049;43.446;3.698;2023-08-12T14:34:13;29.10;99.90
66257;DHT22;53049;43.446;3.698;2023-08-12T14:36:38;28.90;99.90
66257;DHT22;53049;43.446;3.698;2023-08-12T14:39:04;28.90;99.90
66257;DHT22;53049;43.446;3.698;2023-08-12T14:41:30;28.90;99.90
66257;DHT22;53049;43.446;3.698;2023-08-12T14:43:55;28.90;99.90
66257;DHT22;53049;43.446;3.698;2023-08-12T14:46:21;29.00;99.90
66257;DHT22;53049;43.446;3.698;2023-08-12T14:48:47;29.00;99.90
66257;DHT22;53049;43.446;3.698;2023-08-12T14:51:12;29.00;99.90
66257;DHT22;53049;43.446;3.698;2023-08-12T14:53:38;29.10;99.90
66257;DHT22;53049;43.446;3.698;2023-08-12T14:56:03;29.00;99.90
66257;DHT22;53049;43.446;3.698;2023-08-12T14:58:29;29.10;99.90
66257;DHT22;53049;43.446;3.698;2023-08-12T15:00:55;29.00;99.90
66257;DHT22;53049;43.446;3.698;2023-08-12T15:03:22;29.00;99.90
66257;DHT22;53049;43.446;3.698;2023-08-12T15:05:47;29.00;99.90
66257;DHT22;53049;43.446;3.698;2023-08-12T15:08:13;28.80;99.90
66257;DHT22;53049;43.446;3.698;2023-08-12T15:10:39;28.90;99.90
66257;DHT22;53049;43.446;3.698;2023-08-12T15:13:04;29.00;99.90
66257;DHT22;53049;43.446;3.698;2023-08-12T15:15:30;28.90;99.90
66257;DHT22;53049;43.446;3.698;2023-08-12T15:17:56;28.80;99.90
66257;DHT22;53049;43.446;3.698;2023-08-12T15:20:21;28.80;99.90
66257;DHT22;53049;43.446;3.698;2023-08-12T15:22:47;28.70;99.90
66257;DHT22;53049;43.446;3.698;2023-08-12T15:25:12;28.60;99.90
66257;DHT22;53049;43.446;3.698;2023-08-12T15:27:38;28.60;99.90
66257;DHT22;53049;43.446;3.698;2023-08-12T15:30:04;28.50;99.90